36.9°F
Current conditions from King Hill
Updated every 5 minutes
 
  Saturday November 22, 2014

Station Historical Data
Daily Summary for July 15, 2011 Units:  English    Metric   Both
« Previous Day
Next Day »
Daily Weekly Monthly Yearly Custom
  High: Low: Average:
Temperature: 81.3 °F 53.1 °F 66.8 °F
Dew Point: 65.1 °F 51.6 °F 57 °F
Humidity: 97% 40% 74%
Wind Speed: 6.0mph 0.0mph 2.1mph
Wind Gust: 12.0mph - -
Wind- - WNW
Pressure: 30.07 in 29.99 in -
Precipitation: 0.00 in    
Historical Graphs
 
 
Tabular Data for July 15, 2011
Time Temperature Dew Point Pressure Wind Wind Speed Wind Gust Humidity Daily Rainfall
00:00 58.1 °F 55.2 °F 30.00 in Calm     90% 0.01 in
00:10 57.8 °F 54.9 °F 30.00 in Calm     90% 0.00 in
00:15 57.8 °F 54.9 °F 30.00 in Calm     90% 0.00 in
00:20 57.7 °F 54.8 °F 30.00 in Calm     90% 0.00 in
00:25 57.7 °F 55.1 °F 30.00 in Calm     91% 0.00 in
00:30 57.7 °F 54.8 °F 30.00 in Calm     90% 0.00 in
00:35 57.6 °F 55.0 °F 30.00 in Calm     91% 0.00 in
00:40 57.5 °F 54.9 °F 30.00 in Calm     91% 0.00 in
00:45 57.5 °F 54.9 °F 30.00 in Calm     91% 0.00 in
00:50 57.6 °F 55.0 °F 30.00 in Calm     91% 0.00 in
00:55 57.6 °F 55.0 °F 30.00 in Calm     91% 0.00 in
01:00 57.6 °F 55.0 °F 30.00 in Calm     91% 0.00 in
01:05 57.5 °F 54.9 °F 30.00 in Calm     91% 0.00 in
01:10 57.3 °F 54.7 °F 30.00 in Calm     91% 0.00 in
01:15 57.1 °F 54.5 °F 30.00 in Calm     91% 0.00 in
01:20 56.9 °F 54.3 °F 30.00 in Calm     91% 0.00 in
01:25 56.6 °F 54.0 °F 30.00 in Calm     91% 0.00 in
01:30 56.4 °F 53.8 °F 30.00 in Calm     91% 0.00 in
01:35 56.2 °F 53.6 °F 30.00 in Calm     91% 0.00 in
01:40 56.1 °F 53.8 °F 30.00 in Calm     92% 0.00 in
01:45 56.0 °F 53.7 °F 30.00 in Calm     92% 0.00 in
01:50 55.9 °F 53.6 °F 30.00 in Calm     92% 0.00 in
01:55 55.8 °F 53.5 °F 29.99 in Calm     92% 0.00 in
02:00 55.9 °F 53.9 °F 29.99 in Calm     93% 0.00 in
02:05 56.0 °F 54.0 °F 29.99 in Calm     93% 0.00 in
02:10 55.9 °F 53.9 °F 29.99 in Calm     93% 0.00 in
02:15 56.0 °F 54.0 °F 29.99 in Calm     93% 0.00 in
02:25 56.1 °F 54.4 °F 29.99 in Calm     94% 0.00 in
02:30 56.2 °F 54.5 °F 30.00 in Calm     94% 0.00 in
02:35 56.2 °F 54.5 °F 30.00 in Calm     94% 0.00 in
02:40 56.2 °F 54.5 °F 30.00 in Calm     94% 0.00 in
02:45 56.1 °F 54.4 °F 30.00 in Calm     94% 0.00 in
02:50 55.9 °F 54.2 °F 30.00 in Calm     94% 0.00 in
02:55 55.8 °F 54.1 °F 30.00 in Calm     94% 0.00 in
03:00 55.6 °F 53.9 °F 30.00 in Calm     94% 0.00 in
03:05 55.4 °F 53.7 °F 30.00 in Calm     94% 0.00 in
03:10 55.1 °F 53.4 °F 30.00 in Calm     94% 0.00 in
03:15 55.0 °F 53.3 °F 30.00 in Calm     94% 0.00 in
03:20 54.8 °F 53.1 °F 30.00 in Calm     94% 0.00 in
03:25 54.8 °F 53.1 °F 30.00 in Calm     94% 0.00 in
03:30 54.7 °F 53.0 °F 30.00 in Calm     94% 0.00 in
03:35 54.6 °F 52.9 °F 30.00 in Calm     94% 0.00 in
03:45 54.4 °F 53.0 °F 30.00 in Calm   2.0 mph 95% 0.00 in
03:50 54.4 °F 53.0 °F 30.00 in Calm   2.0 mph 95% 0.00 in
03:55 54.4 °F 53.0 °F 30.00 in Calm     95% 0.00 in
04:00 54.3 °F 52.9 °F 30.00 in Calm     95% 0.00 in
04:05 54.4 °F 53.0 °F 30.00 in Calm     95% 0.00 in
04:10 54.4 °F 53.0 °F 30.00 in Calm     95% 0.00 in
04:15 54.3 °F 52.9 °F 30.01 in Calm     95% 0.00 in
04:20 54.2 °F 52.8 °F 30.00 in Calm     95% 0.00 in
04:25 54.1 °F 52.7 °F 30.00 in Calm     95% 0.00 in
04:30 54.0 °F 52.6 °F 30.01 in Calm     95% 0.00 in
04:35 53.9 °F 52.5 °F 30.01 in Calm     95% 0.00 in
04:40 53.8 °F 52.4 °F 30.01 in Calm     95% 0.00 in
04:45 53.7 °F 52.3 °F 30.01 in Calm     95% 0.00 in
04:50 53.6 °F 52.2 °F 30.01 in Calm     95% 0.00 in
04:55 53.6 °F 52.2 °F 30.01 in Calm     95% 0.00 in
05:00 53.6 °F 52.2 °F 30.01 in Calm     95% 0.00 in
05:05 53.5 °F 52.1 °F 30.01 in Calm     95% 0.00 in
05:10 53.3 °F 51.9 °F 30.02 in Calm     95% 0.00 in
05:15 53.3 °F 51.9 °F 30.02 in Calm     95% 0.00 in
05:20 53.3 °F 51.9 °F 30.02 in Calm     95% 0.00 in
05:25 53.2 °F 51.8 °F 30.02 in Calm     95% 0.00 in
05:30 53.2 °F 51.8 °F 30.02 in Calm     95% 0.00 in
05:35 53.1 °F 51.7 °F 30.02 in Calm     95% 0.00 in
05:40 53.4 °F 52.0 °F 30.02 in Calm     95% 0.00 in
05:45 53.5 °F 52.1 °F 30.02 in Calm     95% 0.00 in
05:50 53.5 °F 52.1 °F 30.02 in Calm     95% 0.00 in
05:55 53.5 °F 52.1 °F 30.02 in Calm     95% 0.00 in
06:00 53.4 °F 52.0 °F 30.02 in Calm     95% 0.00 in
06:05 53.4 °F 52.0 °F 30.03 in Calm     95% 0.00 in
06:10 53.4 °F 52.0 °F 30.03 in Calm     95% 0.00 in
06:15 53.6 °F 52.5 °F 30.03 in Calm     96% 0.00 in
06:20 53.8 °F 52.4 °F 30.03 in Calm     95% 0.00 in
06:25 54.3 °F 53.2 °F 30.03 in Calm   1.0 mph 96% 0.00 in
06:30 55.1 °F 54.0 °F 30.03 in Calm   1.0 mph 96% 0.00 in
06:35 55.5 °F 54.4 °F 30.04 in Calm     96% 0.00 in
06:40 55.6 °F 54.5 °F 30.04 in Calm     96% 0.00 in
06:45 56.2 °F 55.1 °F 30.04 in Calm     96% 0.00 in
06:50 56.8 °F 55.7 °F 30.04 in Calm     96% 0.00 in
06:55 56.9 °F 55.8 °F 30.04 in Calm     96% 0.00 in
07:00 57.1 °F 56.0 °F 30.04 in Calm     96% 0.00 in
07:05 57.3 °F 56.2 °F 30.05 in Calm   1.0 mph 96% 0.00 in
07:10 57.8 °F 56.7 °F 30.05 in Calm   1.0 mph 96% 0.00 in
07:15 58.3 °F 57.2 °F 30.05 in Calm   1.0 mph 96% 0.00 in
07:20 58.8 °F 57.7 °F 30.05 in Calm     96% 0.00 in
07:25 59.0 °F 57.9 °F 30.06 in Calm     96% 0.00 in
07:30 59.2 °F 58.1 °F 30.06 in Calm   1.0 mph 96% 0.00 in
07:35 59.6 °F 58.5 °F 30.06 in Calm   1.0 mph 96% 0.00 in
07:40 59.9 °F 58.8 °F 30.06 in Calm     96% 0.00 in
07:45 60.2 °F 59.1 °F 30.06 in Calm     96% 0.00 in
07:50 60.4 °F 59.3 °F 30.06 in Calm   1.0 mph 96% 0.00 in
07:55 61.1 °F 60.0 °F 30.06 in Calm   1.0 mph 96% 0.00 in
08:00 61.7 °F 60.5 °F 30.07 in Calm     96% 0.00 in
08:05 62.6 °F 61.7 °F 30.06 in Calm     97% 0.00 in
08:10 63.8 °F 62.9 °F 30.06 in Calm     97% 0.00 in
08:15 65.1 °F 64.2 °F 30.06 in Calm     97% 0.00 in
08:20 65.2 °F 64.0 °F 30.06 in Calm   1.0 mph 96% 0.00 in
08:25 65.7 °F 63.9 °F 30.06 in NNW 1.0 mph 3.0 mph 94% 0.00 in
08:30 66.7 °F 64.3 °F 30.07 in Calm   3.0 mph 92% 0.00 in
08:35 68.0 °F 64.6 °F 30.06 in Calm     89% 0.00 in
08:40 68.7 °F 63.3 °F 30.06 in Calm     83% 0.00 in
08:45 69.8 °F 65.1 °F 30.06 in Calm   3.0 mph 85% 0.00 in
08:50 70.6 °F 63.4 °F 30.06 in Calm   3.0 mph 78% 0.00 in
08:55 71.3 °F 62.2 °F 30.06 in Calm   1.0 mph 73% 0.00 in
09:05 72.0 °F 62.5 °F 30.06 in Calm   2.0 mph 72% 0.00 in
09:10 72.6 °F 61.0 °F 30.06 in Calm   1.0 mph 67% 0.00 in
09:15 73.2 °F 64.0 °F 30.06 in Calm   1.0 mph 73% 0.00 in
09:25 72.9 °F 59.6 °F 30.06 in Calm   3.0 mph 63% 0.00 in
09:30 72.8 °F 59.9 °F 30.06 in Calm   1.0 mph 64% 0.00 in
09:35 72.4 °F 60.0 °F 30.06 in Calm   1.0 mph 65% 0.00 in
09:40 72.5 °F 61.4 °F 30.06 in Calm   1.0 mph 68% 0.00 in
09:45 72.9 °F 59.6 °F 30.06 in Calm   1.0 mph 63% 0.00 in
09:50 73.2 °F 59.9 °F 30.06 in Calm   1.0 mph 63% 0.00 in
09:55 73.4 °F 61.4 °F 30.06 in Calm   1.0 mph 66% 0.00 in
10:00 73.8 °F 60.4 °F 30.06 in NE 1.0 mph 4.0 mph 63% 0.00 in
10:05 73.8 °F 62.2 °F 30.06 in Calm   4.0 mph 67% 0.00 in
10:10 74.1 °F 64.1 °F 30.06 in Calm   2.0 mph 71% 0.00 in
10:15 74.4 °F 63.6 °F 30.06 in Calm   1.0 mph 69% 0.00 in
10:20 74.4 °F 60.5 °F 30.06 in Calm   1.0 mph 62% 0.00 in
10:25 74.2 °F 63.4 °F 30.06 in Calm   1.0 mph 69% 0.00 in
10:30 74.7 °F 61.7 °F 30.06 in Calm   1.0 mph 64% 0.00 in
10:35 74.9 °F 60.6 °F 30.06 in North 1.0 mph 4.0 mph 61% 0.00 in
10:40 74.6 °F 60.3 °F 30.06 in Calm   4.0 mph 61% 0.00 in
10:45 74.7 °F 63.9 °F 30.06 in Calm   1.0 mph 69% 0.00 in
10:50 75.2 °F 61.8 °F 30.06 in North 1.0 mph 4.0 mph 63% 0.00 in
10:55 75.5 °F 60.7 °F 30.05 in Calm   4.0 mph 60% 0.00 in
11:00 75.7 °F 62.7 °F 30.06 in NW 1.0 mph 4.0 mph 64% 0.00 in
11:05 75.6 °F 62.6 °F 30.06 in WNW 2.0 mph 6.0 mph 64% 0.00 in
11:10 75.7 °F 62.7 °F 30.06 in Calm   6.0 mph 64% 0.00 in
11:15 76.1 °F 62.2 °F 30.05 in Calm   4.0 mph 62% 0.00 in
11:20 76.5 °F 62.5 °F 30.05 in Calm   1.0 mph 62% 0.00 in
11:25 76.6 °F 59.2 °F 30.05 in Calm   4.0 mph 55% 0.00 in
11:30 76.4 °F 59.6 °F 30.05 in Calm   8.0 mph 56% 0.00 in
11:35 76.3 °F 61.4 °F 30.05 in NW 4.0 mph 8.0 mph 60% 0.00 in
11:40 76.3 °F 61.4 °F 30.05 in Calm   6.0 mph 60% 0.00 in
11:45 76.7 °F 61.8 °F 30.05 in Calm   6.0 mph 60% 0.00 in
11:50 76.9 °F 62.4 °F 30.05 in NW 1.0 mph 6.0 mph 61% 0.00 in
11:55 76.9 °F 61.0 °F 30.05 in Calm   6.0 mph 58% 0.00 in
12:00 77.2 °F 59.8 °F 30.05 in NW 1.0 mph 6.0 mph 55% 0.00 in
12:05 77.3 °F 59.9 °F 30.05 in Calm   6.0 mph 55% 0.00 in
12:10 77.5 °F 61.1 °F 30.05 in Calm   5.0 mph 57% 0.00 in
12:15 77.8 °F 59.3 °F 30.04 in NW 4.0 mph 6.0 mph 53% 0.00 in
12:20 77.4 °F 57.3 °F 30.04 in WNW 1.0 mph 8.0 mph 50% 0.00 in
12:30 77.4 °F 61.0 °F 30.04 in NW 2.0 mph 8.0 mph 57% 0.00 in
12:35 77.7 °F 62.3 °F 30.04 in Calm   8.0 mph 59% 0.00 in
12:40 78.0 °F 58.4 °F 30.04 in NW 2.0 mph 9.0 mph 51% 0.00 in
12:45 78.2 °F 60.2 °F 30.04 in NW 2.0 mph 9.0 mph 54% 0.00 in
12:50 78.0 °F 58.4 °F 30.03 in NW 2.0 mph 10.0 mph 51% 0.00 in
12:55 77.9 °F 56.7 °F 30.03 in West 1.0 mph 10.0 mph 48% 0.00 in
13:00 77.8 °F 60.4 °F 30.03 in WNW 4.0 mph 9.0 mph 55% 0.00 in
13:05 78.0 °F 60.5 °F 30.03 in NW 5.0 mph 10.0 mph 55% 0.00 in
13:10 78.4 °F 60.9 °F 30.03 in NW 1.0 mph 10.0 mph 55% 0.00 in
13:15 78.7 °F 56.8 °F 30.03 in NW 2.0 mph 8.0 mph 47% 0.00 in
13:20 78.5 °F 59.4 °F 30.03 in NW 5.0 mph 10.0 mph 52% 0.00 in
13:25 78.5 °F 61.0 °F 30.03 in NW 2.0 mph 10.0 mph 55% 0.00 in
13:30 78.7 °F 60.2 °F 30.02 in NW 5.0 mph 9.0 mph 53% 0.00 in
13:40 78.5 °F 57.8 °F 30.03 in WNW 4.0 mph 12.0 mph 49% 0.00 in
13:45 78.2 °F 58.1 °F 30.02 in NW 3.0 mph 10.0 mph 50% 0.00 in
13:50 78.7 °F 57.4 °F 30.03 in Calm   10.0 mph 48% 0.00 in
13:55 79.2 °F 60.6 °F 30.03 in NW 1.0 mph 6.0 mph 53% 0.00 in
14:00 79.3 °F 59.1 °F 30.03 in NW 3.0 mph 8.0 mph 50% 0.00 in
14:05 79.4 °F 59.2 °F 30.02 in NNE 1.0 mph 8.0 mph 50% 0.00 in
14:10 79.5 °F 61.9 °F 30.02 in Calm   4.0 mph 55% 0.00 in
14:15 79.8 °F 58.4 °F 30.02 in NW 6.0 mph 11.0 mph 48% 0.00 in
14:20 79.8 °F 57.2 °F 30.02 in NW 2.0 mph 11.0 mph 46% 0.00 in
14:25 79.8 °F 62.7 °F 30.02 in NW 1.0 mph 9.0 mph 56% 0.00 in
14:30 79.9 °F 58.5 °F 30.02 in NW 1.0 mph 9.0 mph 48% 0.00 in
14:35 80.2 °F 64.6 °F 30.01 in WNW 1.0 mph 9.0 mph 59% 0.00 in
14:40 80.3 °F 58.8 °F 30.01 in WNW 1.0 mph 9.0 mph 48% 0.00 in
14:45 80.2 °F 58.2 °F 30.02 in NW 3.0 mph 9.0 mph 47% 0.00 in
14:50 80.4 °F 59.5 °F 30.02 in Calm   9.0 mph 49% 0.00 in
14:55 80.4 °F 57.8 °F 30.02 in Calm   4.0 mph 46% 0.00 in
15:00 80.6 °F 57.9 °F 30.02 in Calm   4.0 mph 46% 0.00 in
15:05 80.6 °F 59.7 °F 30.01 in Calm   6.0 mph 49% 0.00 in
15:10 80.4 °F 58.9 °F 30.01 in Calm   7.0 mph 48% 0.00 in
15:15 79.9 °F 59.6 °F 30.02 in Calm   7.0 mph 50% 0.00 in
15:20 80.1 °F 60.9 °F 30.02 in NNE 1.0 mph 7.0 mph 52% 0.00 in
15:25 79.5 °F 58.7 °F 30.02 in NNE 1.0 mph 7.0 mph 49% 0.00 in
15:30 79.4 °F 56.8 °F 30.02 in NNE 1.0 mph 7.0 mph 46% 0.00 in
15:35 79.8 °F 56.6 °F 30.02 in Calm   5.0 mph 45% 0.00 in
15:45 80.8 °F 58.7 °F 30.01 in Calm   4.0 mph 47% 0.00 in
15:50 81.0 °F 58.9 °F 30.01 in Calm   4.0 mph 47% 0.00 in
15:55 81.0 °F 61.2 °F 30.01 in Calm   2.0 mph 51% 0.00 in
16:00 81.3 °F 59.2 °F 30.01 in NW 3.0 mph 6.0 mph 47% 0.00 in
16:05 81.3 °F 58.6 °F 30.01 in Calm   6.0 mph 46% 0.00 in
16:10 81.1 °F 58.4 °F 30.01 in NW 2.0 mph 8.0 mph 46% 0.00 in
16:15 80.6 °F 54.1 °F 30.01 in Calm   8.0 mph 40% 0.00 in
16:20 80.5 °F 57.8 °F 30.01 in NW 1.0 mph 6.0 mph 46% 0.00 in
16:25 80.5 °F 57.8 °F 30.01 in NW 2.0 mph 7.0 mph 46% 0.00 in
16:30 80.6 °F 55.4 °F 30.01 in Calm   7.0 mph 42% 0.00 in
16:35 80.9 °F 58.2 °F 30.01 in Calm   7.0 mph 46% 0.00 in
16:40 80.8 °F 56.9 °F 30.01 in NW 1.0 mph 6.0 mph 44% 0.00 in
16:45 81.2 °F 56.0 °F 30.01 in Calm   3.0 mph 42% 0.00 in
16:50 81.2 °F 58.5 °F 30.01 in Calm   3.0 mph 46% 0.00 in
16:55 81.0 °F 60.6 °F 30.01 in Calm   1.0 mph 50% 0.00 in
17:00 81.0 °F 59.5 °F 30.01 in WNW 1.0 mph 8.0 mph 48% 0.00 in
17:05 80.6 °F 56.7 °F 30.01 in NW 1.0 mph 8.0 mph 44% 0.00 in
17:10 80.6 °F 57.9 °F 30.01 in Calm   6.0 mph 46% 0.00 in
17:15 80.7 °F 58.0 °F 30.01 in Calm   5.0 mph 46% 0.00 in
17:20 80.3 °F 57.7 °F 30.01 in Calm   5.0 mph 46% 0.00 in
17:25 80.6 °F 57.3 °F 30.01 in Calm   2.0 mph 45% 0.00 in
17:30 80.8 °F 59.9 °F 30.01 in Calm   2.0 mph 49% 0.00 in
17:35 80.9 °F 58.8 °F 30.01 in Calm   1.0 mph 47% 0.00 in
17:40 80.5 °F 56.6 °F 30.01 in WNW 4.0 mph 7.0 mph 44% 0.00 in
17:45 80.1 °F 56.3 °F 30.01 in Calm   7.0 mph 44% 0.00 in
17:55 80.3 °F 59.4 °F 30.01 in Calm   1.0 mph 49% 0.00 in
18:00 80.7 °F 60.9 °F 30.01 in Calm   1.0 mph 51% 0.00 in
18:05 80.4 °F 55.9 °F 30.01 in North 1.0 mph 5.0 mph 43% 0.00 in
18:10 80.0 °F 54.9 °F 30.01 in Calm   5.0 mph 42% 0.00 in
18:15 79.8 °F 57.2 °F 30.01 in Calm   1.0 mph 46% 0.00 in
18:25 79.7 °F 60.0 °F 30.01 in Calm   1.0 mph 51% 0.00 in
18:30 79.6 °F 59.4 °F 30.01 in Calm   1.0 mph 50% 0.00 in
18:35 79.7 °F 60.0 °F 30.01 in Calm   4.0 mph 51% 0.00 in
18:40 79.8 °F 60.6 °F 30.01 in Calm   4.0 mph 52% 0.00 in
18:45 79.9 °F 60.2 °F 30.01 in Calm   1.0 mph 51% 0.00 in
18:50 79.6 °F 59.9 °F 30.01 in Calm   1.0 mph 51% 0.00 in
18:55 78.8 °F 59.2 °F 30.01 in Calm   1.0 mph 51% 0.00 in
19:00 78.2 °F 61.7 °F 30.01 in Calm     57% 0.00 in
19:05 77.6 °F 60.2 °F 30.02 in Calm     55% 0.00 in
19:10 77.1 °F 62.2 °F 30.02 in Calm     60% 0.00 in
19:15 76.4 °F 59.6 °F 30.02 in Calm     56% 0.00 in
19:20 75.8 °F 60.9 °F 30.02 in Calm     60% 0.00 in
19:25 75.3 °F 60.9 °F 30.02 in Calm     61% 0.00 in
19:30 74.7 °F 60.8 °F 30.02 in Calm     62% 0.00 in
19:35 74.1 °F 60.7 °F 30.02 in Calm     63% 0.00 in
19:40 73.3 °F 60.4 °F 30.02 in Calm     64% 0.00 in
19:45 72.6 °F 60.6 °F 30.02 in Calm     66% 0.00 in
19:50 71.9 °F 60.4 °F 30.02 in Calm     67% 0.00 in
19:55 71.3 °F 60.2 °F 30.02 in Calm     68% 0.00 in
20:00 70.6 °F 59.9 °F 30.02 in Calm     69% 0.00 in
20:05 69.9 °F 60.1 °F 30.02 in Calm     71% 0.00 in
20:10 69.2 °F 60.2 °F 30.02 in Calm     73% 0.00 in
20:15 68.3 °F 59.3 °F 30.02 in Calm     73% 0.00 in
20:20 67.3 °F 58.4 °F 30.02 in Calm     73% 0.00 in
20:25 66.2 °F 57.7 °F 30.02 in Calm     74% 0.00 in
20:30 65.1 °F 56.6 °F 30.02 in Calm     74% 0.00 in
20:35 64.1 °F 56.0 °F 30.02 in Calm     75% 0.00 in
20:40 63.2 °F 55.5 °F 30.02 in Calm     76% 0.00 in
20:45 62.3 °F 55.0 °F 30.03 in Calm     77% 0.00 in
20:50 61.7 °F 54.8 °F 30.03 in Calm     78% 0.00 in
20:55 61.1 °F 54.5 °F 30.03 in Calm     79% 0.00 in
21:00 60.5 °F 54.0 °F 30.03 in Calm     79% 0.00 in
21:05 59.9 °F 53.4 °F 30.03 in Calm     79% 0.00 in
21:10 59.4 °F 53.2 °F 30.03 in Calm     80% 0.00 in
21:15 59.0 °F 52.8 °F 30.03 in Calm     80% 0.00 in
21:20 59.0 °F 53.5 °F 30.03 in Calm     82% 0.00 in
21:25 58.7 °F 53.2 °F 30.04 in Calm     82% 0.00 in
21:30 58.5 °F 53.4 °F 30.03 in Calm     83% 0.00 in
21:35 58.3 °F 53.2 °F 30.04 in Calm     83% 0.00 in
21:45 58.1 °F 53.0 °F 30.04 in Calm     83% 0.00 in
21:50 58.0 °F 53.2 °F 30.04 in Calm     84% 0.00 in
21:55 57.9 °F 53.1 °F 30.04 in Calm     84% 0.00 in
22:00 57.6 °F 52.5 °F 30.04 in Calm     83% 0.00 in
22:05 57.5 °F 52.4 °F 30.04 in Calm     83% 0.00 in
22:10 57.5 °F 52.7 °F 30.04 in Calm     84% 0.00 in
22:15 57.4 °F 52.6 °F 30.04 in Calm     84% 0.00 in
22:20 57.4 °F 52.6 °F 30.04 in Calm     84% 0.00 in
22:25 57.3 °F 52.5 °F 30.04 in Calm     84% 0.00 in
22:30 57.1 °F 52.0 °F 30.04 in Calm     83% 0.00 in
22:35 56.8 °F 51.7 °F 30.04 in Calm     83% 0.00 in
22:40 56.7 °F 51.6 °F 30.04 in Calm     83% 0.00 in
22:45 56.6 °F 51.8 °F 30.04 in Calm     84% 0.00 in
22:50 56.7 °F 52.2 °F 30.04 in Calm     85% 0.00 in
22:55 56.6 °F 52.1 °F 30.04 in Calm     85% 0.00 in
23:00 56.5 °F 52.0 °F 30.04 in Calm     85% 0.00 in
23:05 56.4 °F 52.0 °F 30.04 in Calm     85% 0.00 in
23:10 56.2 °F 51.8 °F 30.04 in Calm     85% 0.00 in
23:15 56.1 °F 51.7 °F 30.04 in Calm     85% 0.00 in
23:20 56.3 °F 51.9 °F 30.04 in Calm     85% 0.00 in
23:25 56.4 °F 52.0 °F 30.04 in Calm     85% 0.00 in
23:30 56.4 °F 52.0 °F 30.04 in Calm     85% 0.00 in
23:35 56.3 °F 51.9 °F 30.04 in Calm     85% 0.00 in
23:40 56.3 °F 51.9 °F 30.04 in Calm     85% 0.00 in
23:45 56.2 °F 52.1 °F 30.05 in Calm     86% 0.00 in
23:50 56.2 °F 52.4 °F 30.05 in Calm     87% 0.00 in
23:55 56.1 °F 52.3 °F 30.05 in Calm     87% 0.00 in
Westford Weather
Compliments of Weather Underground

 
 
Current Radar Loop:

Copyright © WestfordWeather.net 2007-2014. All rights reserved.